Independence II — WGAX — position and weather

sailwx.info

Track history (hours):
 
Tides and Currents Weather Stations Pressure Air Temp Water Temp Dewpoint Dewpoint Depression Visibility Wind Speed Wind Dir Waves Ship Positions

Independence II

Owner: TOTE Services, Inc., Jacksonville, FL. More information available from US FCC via Universal Licensing System and Coast Guard Vessel Documentation Center.

Last reported at 2017-Dec-18 06:00 UTC. Time now 2017-Dec-18 09:14 UTC.
Position N 37°18' W 036°12'.

Length 200 m; draft 9.6 m.

Type: Cargo ship. MMSI: 367318000.

Wind from 230 at 33 knots

Barometer 1014.1 mb
Air temperature 17.0 ° C
Visibility: greater than 5.4 NM
Dewpoint 15.4 ° C
Water temperature 18.7 ° C

Date/timePositionNaut miles runAvg speedWind from/ knotsBaromVisibWave heightAir tempDewpointWater temp
2017-Dec-18 06:00N 37°18' W 036°12'40 6.7 230 / 331014.1 5.4 17.015.418.7
2017-Dec-18 00:00N 37°30' W 035°24'44 7.4 180 / 391016.0 19.017.518.8
2017-Dec-17 18:00N 37°42' W 034°30'8414.0 190 / 351018.410.8 20.016.918.8
2017-Dec-17 12:00N 38°06' W 032°48'59 9.9 190 / 291025.0 19.015.918.8
2017-Dec-17 06:00N 38°24' W 031°36'17 8.1 230 / 171028.010.8 18.016.418.7
2017-Dec-17 03:54N 38°34' W 031°18'19 8.8
2017-Dec-17 01:45N 38°39' W 030°55'5 9.0
2017-Dec-17 01:14N 38°41' W 030°50'3 9.2
2017-Dec-17 00:56N 38°42' W 030°46'4 9.1
2017-Dec-17 00:30N 38°43' W 030°42'5 9.0
2017-Dec-17 00:00N 38°44' W 030°36'2200.9
2017-Dec-17 00:00N 38°42' W 030°36'611.7 180 / 201030.2 18.016.418.2
2017-Dec-16 23:30N 38°46' W 030°31'4 8.8
2017-Dec-16 23:00N 38°47' W 030°25'4 8.8
2017-Dec-16 22:30N 38°49' W 030°20'4 8.9
2017-Dec-16 22:00N 38°50' W 030°15'4 8.8
2017-Dec-16 21:30N 38°52' W 030°09'5 9.1
2017-Dec-16 21:00N 38°53' W 030°04'5 9.3
2017-Dec-16 20:30N 38°55' W 029°58'5 9.2
2017-Dec-16 20:00N 38°56' W 029°53'5 9.1
2017-Dec-16 19:30N 38°58' W 029°47'5 9.3
2017-Dec-16 19:00N 38°59' W 029°41'5 9.3
2017-Dec-16 18:30N 39°00' W 029°36'5 9.4
2017-Dec-16 18:00N 39°02' W 029°30'2110.4
2017-Dec-16 18:00N 39°00' W 029°30'611.4 220 / 151028.810.8 18.016.418.4
2017-Dec-16 17:30N 39°03' W 029°24'5 9.2
2017-Dec-16 17:00N 39°05' W 029°19'5 9.3
2017-Dec-16 16:30N 39°06' W 029°13'5 9.4
2017-Dec-16 16:00N 39°07' W 029°07'5 9.6
2017-Dec-16 15:30N 39°08' W 029°01'5 9.7
2017-Dec-16 15:00N 39°10' W 028°55'5 9.9
2017-Dec-16 14:30N 39°11' W 028°49'5 9.8
2017-Dec-16 14:00N 39°13' W 028°43'5 9.7
2017-Dec-16 13:30N 39°15' W 028°37'510.1
2017-Dec-16 13:00N 39°16' W 028°31'7521.4
2017-Dec-16 13:00N 39°12' W 028°24'612.8 250 / 141032.4 18.117.916.0
2017-Dec-16 12:30N 39°18' W 028°25'5 9.7
2017-Dec-16 12:00N 39°20' W 028°19'5 9.6
2017-Dec-16 11:30N 39°21' W 028°13'5 9.4
2017-Dec-16 11:00N 39°23' W 028°08'5 9.7
2017-Dec-16 10:30N 39°25' W 028°02'5 9.3
2017-Dec-16 10:00N 39°26' W 027°56'5 9.4
2017-Dec-16 09:30N 39°27' W 027°50'5 9.5
2017-Dec-16 09:00N 39°29' W 027°45'5 9.6
2017-Dec-16 08:30N 39°32' W 027°40'5 9.8
2017-Dec-16 08:00N 39°35' W 027°34'5 9.9
2017-Dec-16 07:30N 39°37' W 027°29'5 9.7
2017-Dec-16 07:00N 39°40' W 027°24'1413.5
2017-Dec-16 06:00N 39°42' W 027°06'55 9.2 270 / 121030.710.8 17.015.417.3
2017-Dec-16 00:00N 40°12' W 026°06'6210.3 300 / 141031.3 17.017.018.3
2017-Dec-15 18:00N 40°48' W 025°00'8013.3 330 / 251027.8 5.4 19.513.916.9
2017-Dec-15 12:00N 41°30' W 023°30'7212.0 290 / 271028.0 5.4 17.015.415.8
2017-Dec-15 06:00N 42°06' W 022°06'6110.1 290 / 321023.610.8 17.017.016.1
2017-Dec-15 00:00N 42°42' W 021°00'6110.1 320 / 231024.1 16.014.416.0
2017-Dec-14 18:00N 43°12' W 019°48'6010.0 280 / 301020.5 2.2 16.515.715.8
2017-Dec-14 12:00N 43°42' W 018°36'8414.0 260 / 19 15.614.6
2017-Dec-14 06:00N 44°30' W 017°00'7314.7 300 / 181023.510.8 13.0 7.414.1
2017-Dec-14 01:00N 45°06' W 015°30'16812.9 300 / 221022.7 12.010.214.0
2017-Dec-13 12:00N 46°36' W 012°06'8514.1 300 / 411016.1 13.312.811.0
2017-Dec-13 06:00N 47°24' W 010°24'16313.6 240 / 381009.1 2.2 13.011.313.3
2017-Dec-12 18:00N 48°54' W 007°00'9914.1 220 / 351009.5 9.0 4.911.3
2017-Dec-12 11:00N 49°42' W 004°48'2617.9 260 / 171012.3 9.0 2.612.2
2017-Dec-12 09:33N 49°57' W 004°15'215.6
2017-Dec-12 09:23N 49°58' W 004°12'715.8
2017-Dec-12 08:57N 50°00' W 004°02'716.5
2017-Dec-12 08:30N 50°03' W 003°51'1016.7
2017-Dec-12 07:55N 50°06' W 003°36'716.2
2017-Dec-12 07:31N 50°08' W 003°26'816.2
2017-Dec-12 07:00N 50°10' W 003°14'816.0
2017-Dec-12 06:30N 50°13' W 003°02'815.7
2017-Dec-12 06:00N 50°15' W 002°51'815.4
2017-Dec-12 05:31N 50°17' W 002°39'814.9
2017-Dec-12 05:00N 50°18' W 002°27'2514.0
2017-Dec-12 03:14N 50°22' W 001°49'313.4
2017-Dec-12 03:00N 50°23' W 001°45'1813.5
2017-Dec-12 01:41N 50°26' W 001°17'414.3
2017-Dec-12 01:25N 50°29' W 001°12'814.6
2017-Dec-12 00:51N 50°33' W 001°02'515.4
2017-Dec-12 00:31N 50°38' W 000°58'5 9.6
2017-Dec-12 00:01N 50°43' W 001°00'815.5
2017-Dec-11 23:31N 50°46' W 001°11'5 9.2
2017-Dec-11 23:00N 50°48' W 001°18'5 9.0
2017-Dec-11 22:30N 50°52' W 001°22'2 0.1
2017-Dec-11 10:07N 50°53' W 001°24'0 1.9
2017-Dec-11 10:01N 50°53' W 001°24'4 8.2
2017-Dec-11 09:30N 50°50' W 001°19'4 8.1
2017-Dec-11 09:01N 50°46' W 001°16'714.8
2017-Dec-11 08:31N 50°44' W 001°05'612.1
2017-Dec-11 08:00N 50°40' W 000°58'3 5.4
2017-Dec-11 07:30N 50°39' W 000°54'2 3.4
2017-Dec-11 07:00N 50°38' W 000°52'4 8.1
2017-Dec-11 06:30N 50°37' W 000°46'611.7
2017-Dec-11 06:00N 50°35' W 000°38'2 4.1
2017-Dec-11 05:30N 50°34' W 000°34'5 9.2
2017-Dec-11 05:00N 50°34' W 000°27'815.0
2017-Dec-11 04:30N 50°33' W 000°15'815.6
2017-Dec-11 04:00N 50°32' W 000°03'816.0
2017-Dec-11 03:30N 50°33' E 000°09'815.8
2017-Dec-11 03:00N 50°35' E 000°21'815.7
2017-Dec-11 02:30N 50°38' E 000°33'816.1
2017-Dec-11 02:00N 50°42' E 000°44'816.8
2017-Dec-11 01:30N 50°47' E 000°55'917.5
2017-Dec-11 01:00N 50°52' E 001°06'918.3
2017-Dec-11 00:30N 50°58' E 001°16'918.6
2017-Dec-11 00:00N 51°04' E 001°28'918.3
2017-Dec-10 23:31N 51°10' E 001°40'917.5
2017-Dec-10 23:00N 51°16' E 001°49'816.7
2017-Dec-10 22:30N 51°23' E 001°57'714.2
2017-Dec-10 22:01N 51°23' E 002°08'816.1
2017-Dec-10 21:30N 51°21' E 002°21'816.0
2017-Dec-10 21:00N 51°23' E 002°33'612.4
2017-Dec-10 20:30N 51°23' E 002°44'511.0
2017-Dec-10 20:00N 51°25' E 002°51'714.6
2017-Dec-10 19:30N 51°25' E 003°03'612.7
2017-Dec-10 19:00N 51°22' E 003°12'2 3.7
2017-Dec-10 18:30N 51°20' E 003°13'0 0.0
2017-Dec-10 18:00N 51°20' E 003°13'1 2.1
2017-Dec-10 17:29N 51°19' E 003°14'0 0.0
2017-Dec-10 16:59N 51°19' E 003°14'0 0.0
2017-Dec-10 16:29N 51°19' E 003°14'0 0.0
2017-Dec-10 15:59N 51°19' E 003°14'0 0.0
2017-Dec-10 15:29N 51°19' E 003°14'0 0.0
2017-Dec-10 14:59N 51°19' E 003°14'0 0.0
2017-Dec-10 14:29N 51°19' E 003°14'0 0.0
2017-Dec-10 13:59N 51°19' E 003°14'0 0.0
2017-Dec-10 13:29N 51°19' E 003°14'0 0.0
2017-Dec-10 12:59N 51°19' E 003°14'0 0.0
2017-Dec-10 12:29N 51°19' E 003°14'0 0.0
2017-Dec-10 11:59N 51°19' E 003°14'0 0.0
2017-Dec-10 11:29N 51°19' E 003°14'0 0.0
2017-Dec-10 10:59N 51°19' E 003°14'0 0.0
2017-Dec-10 10:29N 51°19' E 003°14'0 0.0
2017-Dec-10 09:59N 51°19' E 003°14'0 0.0
2017-Dec-10 09:29N 51°19' E 003°14'0 0.0
2017-Dec-10 08:59N 51°19' E 003°14'0 0.0
2017-Dec-10 08:29N 51°19' E 003°14'0 0.0
2017-Dec-10 07:56N 51°19' E 003°14'0 0.0
2017-Dec-10 07:29N 51°19' E 003°14'0 0.0
2017-Dec-10 06:59N 51°19' E 003°14'0 0.0
2017-Dec-10 06:29N 51°19' E 003°14'0 0.0
2017-Dec-10 05:59N 51°19' E 003°14'0 0.0
2017-Dec-10 05:29N 51°19' E 003°14'0 0.0
2017-Dec-10 04:59N 51°19' E 003°14'0 0.0
2017-Dec-10 04:31N 51°19' E 003°14'1 2.2
2017-Dec-10 04:00N 51°20' E 003°13'0 0.6
2017-Dec-10 03:30N 51°20' E 003°13'510.4
2017-Dec-10 03:00N 51°24' E 003°07'714.9
2017-Dec-10 02:31N 51°22' E 002°55'813.6
2017-Dec-10 01:57N 51°23' E 002°43'9913.4
2017-Dec-09 18:35N 52°52' E 003°50'914.6
2017-Dec-09 17:57N 52°59' E 004°01'1015.3
2017-Dec-09 17:18N 53°05' E 004°13'2815.5
2017-Dec-09 15:30N 53°29' E 004°38'815.2
2017-Dec-09 15:00N 53°31' E 004°51'714.8
2017-Dec-09 14:30N 53°33' E 005°03'814.5
2017-Dec-09 13:59N 53°36' E 005°15'714.0
2017-Dec-09 13:29N 53°38' E 005°26'913.8
2017-Dec-09 12:52N 53°41' E 005°39'513.5
2017-Dec-09 12:30N 53°42' E 005°47'71 9.0
2017-Dec-09 04:39N 53°53' E 007°46'1 5.0
2017-Dec-09 04:29N 53°53' E 007°47'2 4.9
2017-Dec-09 04:00N 53°52' E 007°51'3 6.2
2017-Dec-09 03:30N 53°52' E 007°56'510.7
2017-Dec-09 03:00N 53°50' E 008°05'510.4
2017-Dec-09 02:30N 53°46' E 008°11'5 9.6
2017-Dec-09 02:00N 53°43' E 008°17'4 9.0
2017-Dec-09 01:30N 53°40' E 008°23'4 8.4
2017-Dec-09 01:00N 53°37' E 008°28'4 7.4
2017-Dec-09 00:30N 53°34' E 008°32'1 1.2
2017-Dec-08 23:59N 53°34' E 008°33'0 0.8
2017-Dec-08 23:29N 53°35' E 008°33'0 0.0
2017-Dec-08 22:59N 53°35' E 008°33'0 0.0
2017-Dec-08 22:29N 53°35' E 008°33'0 0.0
2017-Dec-08 21:59N 53°35' E 008°33'0 0.0
2017-Dec-08 21:29N 53°35' E 008°33'0 0.0
2017-Dec-08 20:56N 53°35' E 008°33'0 0.0
2017-Dec-08 20:29N 53°35' E 008°33'0 0.0
2017-Dec-08 19:59N 53°35' E 008°33'0 0.0
2017-Dec-08 19:29N 53°35' E 008°33'0 0.0
2017-Dec-08 18:59N 53°35' E 008°33'0 0.0
2017-Dec-08 18:29N 53°35' E 008°33'0 0.0
2017-Dec-08 17:59N 53°35' E 008°33'0 0.0
2017-Dec-08 17:29N 53°35' E 008°33'0 0.0
2017-Dec-08 16:53N 53°35' E 008°33'0 0.0
2017-Dec-08 16:29N 53°35' E 008°33'0 0.0
2017-Dec-08 15:59N 53°35' E 008°33'0 0.0
2017-Dec-08 15:29N 53°35' E 008°33'0 0.0
2017-Dec-08 14:59N 53°35' E 008°33'0 0.0
2017-Dec-08 14:29N 53°35' E 008°33'0 0.0
2017-Dec-08 13:59N 53°35' E 008°33'0 0.0
2017-Dec-08 13:29N 53°35' E 008°33'0 0.0
2017-Dec-08 12:59N 53°35' E 008°33'0 0.0
2017-Dec-08 12:29N 53°35' E 008°33'0 0.0
2017-Dec-08 11:59N 53°35' E 008°33'0 0.0
2017-Dec-08 11:29N 53°35' E 008°33'0 0.0
2017-Dec-08 10:59N 53°35' E 008°33'0 0.0
2017-Dec-08 10:29N 53°35' E 008°33'0 0.0
2017-Dec-08 09:59N 53°35' E 008°33'0 0.0
2017-Dec-08 09:29N 53°35' E 008°33'0 0.0
2017-Dec-08 08:59N 53°35' E 008°33'0 0.0
2017-Dec-08 08:29N 53°35' E 008°33'0 0.0
2017-Dec-08 07:58N 53°35' E 008°33'0 0.0
2017-Dec-08 07:28N 53°35' E 008°33'0 0.0
2017-Dec-08 06:58N 53°35' E 008°33'0 0.0
2017-Dec-08 06:28N 53°35' E 008°33'  
Track history (hours):
 
Tides and Currents Weather Stations Pressure Air Temp Water Temp Dewpoint Dewpoint Depression Visibility Wind Speed Wind Dir Waves Ship Positions

Independence II

Owner: TOTE Services, Inc., Jacksonville, FL. More information available from US FCC via Universal Licensing System and Coast Guard Vessel Documentation Center.

Last reported at 2017-Dec-18 06:00 UTC. Time now 2017-Dec-18 09:14 UTC.
Position N 37°18' W 036°12'.

Length 200 m; draft 9.6 m.

Type: Cargo ship. MMSI: 367318000.

Wind from 230 at 33 knots

Barometer 1014.1 mb
Air temperature 17.0 ° C
Visibility: greater than 5.4 NM
Dewpoint 15.4 ° C
Water temperature 18.7 ° C

Date/timePositionNaut miles runAvg speedWind from/ knotsBaromVisibWave heightAir tempDewpointWater temp
2017-Dec-18 06:00N 37°18' W 036°12'40 6.7 230 / 331014.1 5.4 17.015.418.7
2017-Dec-18 00:00N 37°30' W 035°24'44 7.4 180 / 391016.0 19.017.518.8
2017-Dec-17 18:00N 37°42' W 034°30'8414.0 190 / 351018.410.8 20.016.918.8
2017-Dec-17 12:00N 38°06' W 032°48'59 9.9 190 / 291025.0 19.015.918.8
2017-Dec-17 06:00N 38°24' W 031°36'17 8.1 230 / 171028.010.8 18.016.418.7
2017-Dec-17 03:54N 38°34' W 031°18'19 8.8
2017-Dec-17 01:45N 38°39' W 030°55'5 9.0
2017-Dec-17 01:14N 38°41' W 030°50'3 9.2
2017-Dec-17 00:56N 38°42' W 030°46'4 9.1
2017-Dec-17 00:30N 38°43' W 030°42'5 9.0
2017-Dec-17 00:00N 38°44' W 030°36'2200.9
2017-Dec-17 00:00N 38°42' W 030°36'611.7 180 / 201030.2 18.016.418.2
2017-Dec-16 23:30N 38°46' W 030°31'4 8.8
2017-Dec-16 23:00N 38°47' W 030°25'4 8.8
2017-Dec-16 22:30N 38°49' W 030°20'4 8.9
2017-Dec-16 22:00N 38°50' W 030°15'4 8.8
2017-Dec-16 21:30N 38°52' W 030°09'5 9.1
2017-Dec-16 21:00N 38°53' W 030°04'5 9.3
2017-Dec-16 20:30N 38°55' W 029°58'5 9.2
2017-Dec-16 20:00N 38°56' W 029°53'5 9.1
2017-Dec-16 19:30N 38°58' W 029°47'5 9.3
2017-Dec-16 19:00N 38°59' W 029°41'5 9.3
2017-Dec-16 18:30N 39°00' W 029°36'5 9.4
2017-Dec-16 18:00N 39°02' W 029°30'2110.4
2017-Dec-16 18:00N 39°00' W 029°30'611.4 220 / 151028.810.8 18.016.418.4
2017-Dec-16 17:30N 39°03' W 029°24'5 9.2
2017-Dec-16 17:00N 39°05' W 029°19'5 9.3
2017-Dec-16 16:30N 39°06' W 029°13'5 9.4
2017-Dec-16 16:00N 39°07' W 029°07'5 9.6
2017-Dec-16 15:30N 39°08' W 029°01'5 9.7
2017-Dec-16 15:00N 39°10' W 028°55'5 9.9
2017-Dec-16 14:30N 39°11' W 028°49'5 9.8
2017-Dec-16 14:00N 39°13' W 028°43'5 9.7
2017-Dec-16 13:30N 39°15' W 028°37'510.1
2017-Dec-16 13:00N 39°16' W 028°31'7521.4
2017-Dec-16 13:00N 39°12' W 028°24'612.8 250 / 141032.4 18.117.916.0
2017-Dec-16 12:30N 39°18' W 028°25'5 9.7
2017-Dec-16 12:00N 39°20' W 028°19'5 9.6
2017-Dec-16 11:30N 39°21' W 028°13'5 9.4
2017-Dec-16 11:00N 39°23' W 028°08'5 9.7
2017-Dec-16 10:30N 39°25' W 028°02'5 9.3
2017-Dec-16 10:00N 39°26' W 027°56'5 9.4
2017-Dec-16 09:30N 39°27' W 027°50'5 9.5
2017-Dec-16 09:00N 39°29' W 027°45'5 9.6
2017-Dec-16 08:30N 39°32' W 027°40'5 9.8
2017-Dec-16 08:00N 39°35' W 027°34'5 9.9
2017-Dec-16 07:30N 39°37' W 027°29'5 9.7
2017-Dec-16 07:00N 39°40' W 027°24'1413.5
2017-Dec-16 06:00N 39°42' W 027°06'55 9.2 270 / 121030.710.8 17.015.417.3
2017-Dec-16 00:00N 40°12' W 026°06'6210.3 300 / 141031.3 17.017.018.3
2017-Dec-15 18:00N 40°48' W 025°00'8013.3 330 / 251027.8 5.4 19.513.916.9
2017-Dec-15 12:00N 41°30' W 023°30'7212.0 290 / 271028.0 5.4 17.015.415.8
2017-Dec-15 06:00N 42°06' W 022°06'6110.1 290 / 321023.610.8 17.017.016.1
2017-Dec-15 00:00N 42°42' W 021°00'6110.1 320 / 231024.1 16.014.416.0
2017-Dec-14 18:00N 43°12' W 019°48'6010.0 280 / 301020.5 2.2 16.515.715.8
2017-Dec-14 12:00N 43°42' W 018°36'8414.0 260 / 19 15.614.6
2017-Dec-14 06:00N 44°30' W 017°00'7314.7 300 / 181023.510.8 13.0 7.414.1
2017-Dec-14 01:00N 45°06' W 015°30'16812.9 300 / 221022.7 12.010.214.0
2017-Dec-13 12:00N 46°36' W 012°06'8514.1 300 / 411016.1 13.312.811.0
2017-Dec-13 06:00N 47°24' W 010°24'16313.6 240 / 381009.1 2.2 13.011.313.3
2017-Dec-12 18:00N 48°54' W 007°00'9914.1 220 / 351009.5 9.0 4.911.3
2017-Dec-12 11:00N 49°42' W 004°48'2617.9 260 / 171012.3 9.0 2.612.2
2017-Dec-12 09:33N 49°57' W 004°15'215.6
2017-Dec-12 09:23N 49°58' W 004°12'715.8
2017-Dec-12 08:57N 50°00' W 004°02'716.5
2017-Dec-12 08:30N 50°03' W 003°51'1016.7
2017-Dec-12 07:55N 50°06' W 003°36'716.2
2017-Dec-12 07:31N 50°08' W 003°26'816.2
2017-Dec-12 07:00N 50°10' W 003°14'816.0
2017-Dec-12 06:30N 50°13' W 003°02'815.7
2017-Dec-12 06:00N 50°15' W 002°51'815.4
2017-Dec-12 05:31N 50°17' W 002°39'814.9
2017-Dec-12 05:00N 50°18' W 002°27'2514.0
2017-Dec-12 03:14N 50°22' W 001°49'313.4
2017-Dec-12 03:00N 50°23' W 001°45'1813.5
2017-Dec-12 01:41N 50°26' W 001°17'414.3
2017-Dec-12 01:25N 50°29' W 001°12'814.6
2017-Dec-12 00:51N 50°33' W 001°02'515.4
2017-Dec-12 00:31N 50°38' W 000°58'5 9.6
2017-Dec-12 00:01N 50°43' W 001°00'815.5
2017-Dec-11 23:31N 50°46' W 001°11'5 9.2
2017-Dec-11 23:00N 50°48' W 001°18'5 9.0
2017-Dec-11 22:30N 50°52' W 001°22'2 0.1
2017-Dec-11 10:07N 50°53' W 001°24'0 1.9
2017-Dec-11 10:01N 50°53' W 001°24'4 8.2
2017-Dec-11 09:30N 50°50' W 001°19'4 8.1
2017-Dec-11 09:01N 50°46' W 001°16'714.8
2017-Dec-11 08:31N 50°44' W 001°05'612.1
2017-Dec-11 08:00N 50°40' W 000°58'3 5.4
2017-Dec-11 07:30N 50°39' W 000°54'2 3.4
2017-Dec-11 07:00N 50°38' W 000°52'4 8.1
2017-Dec-11 06:30N 50°37' W 000°46'611.7
2017-Dec-11 06:00N 50°35' W 000°38'2 4.1
2017-Dec-11 05:30N 50°34' W 000°34'5 9.2
2017-Dec-11 05:00N 50°34' W 000°27'815.0
2017-Dec-11 04:30N 50°33' W 000°15'815.6
2017-Dec-11 04:00N 50°32' W 000°03'816.0
2017-Dec-11 03:30N 50°33' E 000°09'815.8
2017-Dec-11 03:00N 50°35' E 000°21'815.7
2017-Dec-11 02:30N 50°38' E 000°33'816.1
2017-Dec-11 02:00N 50°42' E 000°44'816.8
2017-Dec-11 01:30N 50°47' E 000°55'917.5
2017-Dec-11 01:00N 50°52' E 001°06'918.3
2017-Dec-11 00:30N 50°58' E 001°16'918.6
2017-Dec-11 00:00N 51°04' E 001°28'918.3
2017-Dec-10 23:31N 51°10' E 001°40'917.5
2017-Dec-10 23:00N 51°16' E 001°49'816.7
2017-Dec-10 22:30N 51°23' E 001°57'714.2
2017-Dec-10 22:01N 51°23' E 002°08'816.1
2017-Dec-10 21:30N 51°21' E 002°21'816.0
2017-Dec-10 21:00N 51°23' E 002°33'612.4
2017-Dec-10 20:30N 51°23' E 002°44'511.0
2017-Dec-10 20:00N 51°25' E 002°51'714.6
2017-Dec-10 19:30N 51°25' E 003°03'612.7
2017-Dec-10 19:00N 51°22' E 003°12'2 3.7
2017-Dec-10 18:30N 51°20' E 003°13'0 0.0
2017-Dec-10 18:00N 51°20' E 003°13'1 2.1
2017-Dec-10 17:29N 51°19' E 003°14'0 0.0
2017-Dec-10 16:59N 51°19' E 003°14'0 0.0
2017-Dec-10 16:29N 51°19' E 003°14'0 0.0
2017-Dec-10 15:59N 51°19' E 003°14'0 0.0
2017-Dec-10 15:29N 51°19' E 003°14'0 0.0
2017-Dec-10 14:59N 51°19' E 003°14'0 0.0
2017-Dec-10 14:29N 51°19' E 003°14'0 0.0
2017-Dec-10 13:59N 51°19' E 003°14'0 0.0
2017-Dec-10 13:29N 51°19' E 003°14'0 0.0
2017-Dec-10 12:59N 51°19' E 003°14'0 0.0
2017-Dec-10 12:29N 51°19' E 003°14'0 0.0
2017-Dec-10 11:59N 51°19' E 003°14'0 0.0
2017-Dec-10 11:29N 51°19' E 003°14'0 0.0
2017-Dec-10 10:59N 51°19' E 003°14'0 0.0
2017-Dec-10 10:29N 51°19' E 003°14'0 0.0
2017-Dec-10 09:59N 51°19' E 003°14'0 0.0
2017-Dec-10 09:29N 51°19' E 003°14'0 0.0
2017-Dec-10 08:59N 51°19' E 003°14'0 0.0
2017-Dec-10 08:29N 51°19' E 003°14'0 0.0
2017-Dec-10 07:56N 51°19' E 003°14'0 0.0
2017-Dec-10 07:29N 51°19' E 003°14'0 0.0
2017-Dec-10 06:59N 51°19' E 003°14'0 0.0
2017-Dec-10 06:29N 51°19' E 003°14'0 0.0
2017-Dec-10 05:59N 51°19' E 003°14'0 0.0
2017-Dec-10 05:29N 51°19' E 003°14'0 0.0
2017-Dec-10 04:59N 51°19' E 003°14'0 0.0
2017-Dec-10 04:31N 51°19' E 003°14'1 2.2
2017-Dec-10 04:00N 51°20' E 003°13'0 0.6
2017-Dec-10 03:30N 51°20' E 003°13'510.4
2017-Dec-10 03:00N 51°24' E 003°07'714.9
2017-Dec-10 02:31N 51°22' E 002°55'813.6
2017-Dec-10 01:57N 51°23' E 002°43'9913.4
2017-Dec-09 18:35N 52°52' E 003°50'914.6
2017-Dec-09 17:57N 52°59' E 004°01'1015.3
2017-Dec-09 17:18N 53°05' E 004°13'2815.5
2017-Dec-09 15:30N 53°29' E 004°38'815.2
2017-Dec-09 15:00N 53°31' E 004°51'714.8
2017-Dec-09 14:30N 53°33' E 005°03'814.5
2017-Dec-09 13:59N 53°36' E 005°15'714.0
2017-Dec-09 13:29N 53°38' E 005°26'913.8
2017-Dec-09 12:52N 53°41' E 005°39'513.5
2017-Dec-09 12:30N 53°42' E 005°47'71 9.0
2017-Dec-09 04:39N 53°53' E 007°46'1 5.0
2017-Dec-09 04:29N 53°53' E 007°47'2 4.9
2017-Dec-09 04:00N 53°52' E 007°51'3 6.2
2017-Dec-09 03:30N 53°52' E 007°56'510.7
2017-Dec-09 03:00N 53°50' E 008°05'510.4
2017-Dec-09 02:30N 53°46' E 008°11'5 9.6
2017-Dec-09 02:00N 53°43' E 008°17'4 9.0
2017-Dec-09 01:30N 53°40' E 008°23'4 8.4
2017-Dec-09 01:00N 53°37' E 008°28'4 7.4
2017-Dec-09 00:30N 53°34' E 008°32'1 1.2
2017-Dec-08 23:59N 53°34' E 008°33'0 0.8
2017-Dec-08 23:29N 53°35' E 008°33'0 0.0
2017-Dec-08 22:59N 53°35' E 008°33'0 0.0
2017-Dec-08 22:29N 53°35' E 008°33'0 0.0
2017-Dec-08 21:59N 53°35' E 008°33'0 0.0
2017-Dec-08 21:29N 53°35' E 008°33'0 0.0
2017-Dec-08 20:56N 53°35' E 008°33'0 0.0
2017-Dec-08 20:29N 53°35' E 008°33'0 0.0
2017-Dec-08 19:59N 53°35' E 008°33'0 0.0
2017-Dec-08 19:29N 53°35' E 008°33'0 0.0
2017-Dec-08 18:59N 53°35' E 008°33'0 0.0
2017-Dec-08 18:29N 53°35' E 008°33'0 0.0
2017-Dec-08 17:59N 53°35' E 008°33'0 0.0
2017-Dec-08 17:29N 53°35' E 008°33'0 0.0
2017-Dec-08 16:53N 53°35' E 008°33'0 0.0
2017-Dec-08 16:29N 53°35' E 008°33'0 0.0
2017-Dec-08 15:59N 53°35' E 008°33'0 0.0
2017-Dec-08 15:29N 53°35' E 008°33'0 0.0
2017-Dec-08 14:59N 53°35' E 008°33'0 0.0
2017-Dec-08 14:29N 53°35' E 008°33'0 0.0
2017-Dec-08 13:59N 53°35' E 008°33'0 0.0
2017-Dec-08 13:29N 53°35' E 008°33'0 0.0
2017-Dec-08 12:59N 53°35' E 008°33'0 0.0
2017-Dec-08 12:29N 53°35' E 008°33'0 0.0
2017-Dec-08 11:59N 53°35' E 008°33'0 0.0
2017-Dec-08 11:29N 53°35' E 008°33'0 0.0
2017-Dec-08 10:59N 53°35' E 008°33'0 0.0
2017-Dec-08 10:29N 53°35' E 008°33'0 0.0
2017-Dec-08 09:59N 53°35' E 008°33'0 0.0
2017-Dec-08 09:29N 53°35' E 008°33'0 0.0
2017-Dec-08 08:59N 53°35' E 008°33'0 0.0
2017-Dec-08 08:29N 53°35' E 008°33'0 0.0
2017-Dec-08 07:58N 53°35' E 008°33'0 0.0
2017-Dec-08 07:28N 53°35' E 008°33'0 0.0
2017-Dec-08 06:58N 53°35' E 008°33'0 0.0
2017-Dec-08 06:28N 53°35' E 008°33'  

Dump ship's entire track history